createdAt,value
2018-09-30T00:00:26.300Z,55.73
2018-09-30T00:02:54.406Z,55.71
2018-09-30T00:05:22.623Z,55.71
2018-09-30T00:07:50.830Z,55.75
2018-09-30T00:10:18.787Z,55.88
2018-09-30T00:12:46.873Z,55.92
2018-09-30T00:15:14.936Z,55.95
2018-09-30T00:17:43.012Z,56.20
2018-09-30T00:20:11.076Z,56.20
2018-09-30T00:22:39.148Z,56.24
2018-09-30T00:25:12.636Z,56.27
2018-09-30T00:27:40.715Z,56.32
2018-09-30T00:30:08.852Z,56.36
2018-09-30T00:32:36.917Z,56.48
2018-09-30T00:35:04.989Z,56.58
2018-09-30T00:37:33.058Z,56.54
2018-09-30T00:40:01.133Z,56.57
2018-09-30T00:42:29.197Z,56.54
2018-09-30T00:44:57.376Z,56.53
2018-09-30T00:47:25.441Z,56.54
2018-09-30T00:49:53.516Z,56.74
2018-09-30T00:52:21.591Z,56.67
2018-09-30T00:54:49.672Z,56.61
2018-09-30T00:57:17.740Z,56.68
2018-09-30T00:59:45.820Z,56.74
2018-09-30T01:02:13.992Z,56.77
2018-09-30T01:04:42.081Z,56.82
2018-09-30T01:07:10.144Z,56.81
2018-09-30T01:09:38.217Z,56.91
2018-09-30T01:12:06.296Z,57.14
2018-09-30T01:14:34.383Z,57.02
2018-09-30T01:17:02.449Z,57.10
2018-09-30T01:19:30.551Z,57.08
2018-09-30T01:21:58.612Z,57.23
2018-09-30T01:24:26.686Z,57.24
2018-09-30T01:26:54.748Z,57.26
2018-09-30T01:29:22.819Z,57.40
2018-09-30T01:31:50.885Z,57.44
2018-09-30T01:34:18.964Z,57.48
2018-09-30T01:36:47.118Z,57.49
2018-09-30T01:39:15.197Z,57.43
2018-09-30T01:41:43.361Z,57.39
2018-09-30T01:44:11.425Z,57.56
2018-09-30T01:46:39.673Z,57.59
2018-09-30T01:49:07.739Z,57.60
2018-09-30T01:51:35.814Z,57.65
2018-09-30T01:54:03.879Z,57.61
2018-09-30T01:56:31.994Z,57.64
2018-09-30T01:59:00.229Z,57.69
2018-09-30T02:01:28.304Z,57.70
2018-09-30T02:03:56.381Z,57.63
2018-09-30T02:06:24.470Z,57.72
2018-09-30T02:08:52.536Z,57.79
2018-09-30T02:11:20.615Z,57.95
2018-09-30T02:13:48.681Z,57.96
2018-09-30T02:16:16.972Z,57.96
2018-09-30T02:18:45.037Z,57.96
2018-09-30T02:21:13.107Z,58.00
2018-09-30T02:23:41.204Z,58.06
2018-09-30T02:26:09.280Z,58.19
2018-09-30T02:28:37.354Z,58.22
2018-09-30T02:31:05.430Z,58.35
2018-09-30T02:33:33.501Z,58.41
2018-09-30T02:36:01.577Z,58.63
2018-09-30T02:38:29.746Z,58.63
2018-09-30T02:40:57.826Z,58.57
2018-09-30T02:43:25.899Z,58.53
2018-09-30T02:45:53.999Z,58.59
2018-09-30T02:48:22.063Z,58.67
2018-09-30T02:50:50.139Z,58.80
2018-09-30T02:53:18.209Z,58.82
2018-09-30T02:55:46.284Z,58.99
2018-09-30T02:58:14.431Z,59.01
2018-09-30T03:00:42.592Z,59.07
2018-09-30T03:03:10.670Z,58.99
2018-09-30T03:05:38.745Z,58.93
2018-09-30T03:08:12.305Z,59.24
2018-09-30T03:10:40.381Z,59.22
2018-09-30T03:13:08.504Z,59.15
2018-09-30T03:15:36.560Z,59.16
2018-09-30T03:18:04.642Z,59.25
2018-09-30T03:20:32.709Z,59.64
2018-09-30T03:23:00.910Z,59.80
2018-09-30T03:25:29.190Z,61.17
2018-09-30T03:27:57.272Z,61.28
2018-09-30T03:30:25.341Z,61.72
2018-09-30T03:32:53.445Z,61.92
2018-09-30T03:35:21.509Z,61.84
2018-09-30T03:37:49.638Z,62.01
2018-09-30T03:40:17.866Z,62.35
2018-09-30T03:42:46.012Z,62.32
2018-09-30T03:45:14.087Z,62.22
2018-09-30T03:47:42.197Z,62.14
2018-09-30T03:50:10.273Z,61.93
2018-09-30T03:52:38.364Z,61.90
2018-09-30T03:55:06.596Z,62.01
2018-09-30T03:57:34.666Z,62.44
2018-09-30T04:00:02.954Z,62.36
2018-09-30T04:02:31.068Z,62.45
2018-09-30T04:04:59.302Z,62.39
2018-09-30T04:07:27.384Z,62.62
2018-09-30T04:09:55.466Z,62.43
2018-09-30T04:12:23.567Z,62.44
2018-09-30T04:14:51.797Z,62.48
2018-09-30T04:17:19.867Z,62.43
2018-09-30T04:19:47.943Z,62.46
2018-09-30T04:22:16.010Z,62.65
2018-09-30T04:24:44.098Z,62.88
2018-09-30T04:27:12.157Z,62.79
2018-09-30T04:29:40.237Z,62.79
2018-09-30T04:32:08.308Z,63.00
2018-09-30T04:34:36.433Z,63.03
2018-09-30T04:37:04.517Z,63.04
2018-09-30T04:39:32.597Z,62.87
2018-09-30T04:42:00.737Z,62.70
2018-09-30T04:44:28.817Z,62.59
2018-09-30T04:46:56.989Z,62.66
2018-09-30T04:49:25.070Z,62.77
2018-09-30T04:51:53.136Z,62.74
2018-09-30T04:54:21.220Z,62.69
2018-09-30T04:56:49.298Z,62.68
2018-09-30T04:59:17.402Z,62.65
2018-09-30T05:01:45.479Z,62.62
2018-09-30T05:04:13.552Z,62.71
2018-09-30T05:06:41.629Z,62.74
2018-09-30T05:09:10.098Z,62.82
2018-09-30T05:11:38.290Z,62.89
2018-09-30T05:14:06.352Z,62.95
2018-09-30T05:16:34.471Z,63.00
2018-09-30T05:19:02.498Z,63.02
2018-09-30T05:21:30.609Z,63.21
2018-09-30T05:23:58.689Z,63.41
2018-09-30T05:26:26.772Z,63.67
2018-09-30T05:28:54.836Z,63.68
2018-09-30T05:31:23.078Z,63.69
2018-09-30T05:33:51.092Z,63.83
2018-09-30T05:36:19.274Z,63.82
2018-09-30T05:38:47.445Z,63.68
2018-09-30T05:41:15.689Z,63.74
2018-09-30T05:43:43.821Z,63.74
2018-09-30T05:46:11.906Z,63.64
2018-09-30T05:48:40.025Z,63.49
2018-09-30T05:51:08.220Z,63.39
2018-09-30T05:53:36.293Z,63.34
2018-09-30T05:56:04.455Z,63.24
2018-09-30T05:58:32.528Z,63.18
2018-09-30T06:01:00.597Z,63.31
2018-09-30T06:03:28.675Z,63.28
2018-09-30T06:05:56.811Z,63.17
2018-09-30T06:08:24.920Z,63.21
2018-09-30T06:10:53.012Z,63.46
2018-09-30T06:13:21.129Z,63.41
2018-09-30T06:15:49.214Z,63.37
2018-09-30T06:18:17.272Z,63.08
2018-09-30T06:20:45.601Z,62.83
2018-09-30T06:23:13.683Z,62.75
2018-09-30T06:25:41.773Z,62.48
2018-09-30T06:28:09.848Z,62.31
2018-09-30T06:30:37.973Z,62.13
2018-09-30T06:33:06.425Z,62.16
2018-09-30T06:35:34.490Z,62.32
2018-09-30T06:38:02.610Z,62.45
2018-09-30T06:40:30.877Z,62.88
2018-09-30T06:42:58.992Z,62.97
2018-09-30T06:45:27.395Z,63.19
2018-09-30T06:47:55.506Z,63.27
2018-09-30T06:50:23.694Z,63.24
2018-09-30T06:52:52.009Z,63.02
2018-09-30T06:55:20.105Z,62.80
2018-09-30T06:57:48.199Z,62.59
2018-09-30T07:00:16.286Z,62.50
2018-09-30T07:02:44.385Z,62.33
2018-09-30T07:05:12.474Z,62.25
2018-09-30T07:07:40.557Z,62.24
2018-09-30T07:10:08.667Z,62.24
2018-09-30T07:12:36.741Z,62.40
2018-09-30T07:15:04.860Z,62.19
2018-09-30T07:17:32.996Z,61.99
2018-09-30T07:20:01.182Z,61.81
2018-09-30T07:22:29.403Z,61.72
2018-09-30T07:24:57.556Z,61.47
2018-09-30T07:27:25.690Z,61.30
2018-09-30T07:29:53.797Z,61.22
2018-09-30T07:32:21.876Z,61.20
2018-09-30T07:34:50.069Z,61.09
2018-09-30T07:37:18.139Z,60.85
2018-09-30T07:39:46.213Z,60.62
2018-09-30T07:42:14.285Z,60.52
2018-09-30T07:44:42.562Z,60.45
2018-09-30T07:47:10.662Z,60.37
2018-09-30T07:49:38.755Z,60.22
2018-09-30T07:52:06.828Z,60.12
2018-09-30T07:54:34.907Z,59.58
2018-09-30T07:57:02.971Z,59.48
2018-09-30T07:59:31.045Z,59.23
2018-09-30T08:01:59.125Z,59.26
2018-09-30T08:04:27.208Z,59.40
2018-09-30T08:06:55.401Z,59.36
2018-09-30T08:09:23.471Z,58.63
2018-09-30T08:11:51.536Z,58.91
2018-09-30T08:14:19.625Z,58.55
2018-09-30T08:16:47.743Z,58.59
2018-09-30T08:19:15.777Z,58.21
2018-09-30T08:21:44.376Z,57.87
2018-09-30T08:24:12.528Z,57.69
2018-09-30T08:26:40.526Z,56.77
2018-09-30T08:29:08.605Z,55.99
2018-09-30T08:31:36.685Z,56.19
2018-09-30T08:34:05.000Z,55.80
2018-09-30T08:36:33.162Z,55.86
2018-09-30T08:39:01.239Z,55.90
2018-09-30T08:41:29.328Z,55.06
2018-09-30T08:43:57.451Z,54.61
2018-09-30T08:46:25.556Z,54.50
2018-09-30T08:48:53.640Z,54.32
2018-09-30T08:51:21.734Z,53.69
2018-09-30T08:53:49.801Z,53.84
2018-09-30T08:56:17.924Z,53.59
2018-09-30T08:58:45.963Z,53.43
2018-09-30T09:01:14.039Z,52.32
2018-09-30T09:03:42.111Z,51.75
2018-09-30T09:06:10.215Z,51.99
2018-09-30T09:08:38.301Z,52.08
2018-09-30T09:11:06.402Z,51.15
2018-09-30T09:13:34.481Z,50.53
2018-09-30T09:16:02.560Z,49.51
2018-09-30T09:18:30.659Z,49.94
2018-09-30T09:20:58.821Z,49.72
2018-09-30T09:23:26.830Z,48.93
2018-09-30T09:25:54.903Z,48.97
2018-09-30T09:28:22.991Z,48.74
2018-09-30T09:30:51.065Z,49.14
2018-09-30T09:33:19.157Z,49.09
2018-09-30T09:35:47.230Z,49.04
2018-09-30T09:38:15.313Z,49.12
2018-09-30T09:40:43.393Z,48.81
2018-09-30T09:43:11.468Z,48.00
2018-09-30T09:45:39.541Z,47.99
2018-09-30T09:48:07.626Z,48.17
2018-09-30T09:50:35.695Z,47.72
2018-09-30T09:53:03.783Z,47.92
2018-09-30T09:55:31.858Z,47.83
2018-09-30T09:57:59.941Z,47.90
2018-09-30T10:00:30.894Z,47.68
2018-09-30T10:02:59.129Z,46.95
2018-09-30T10:05:27.214Z,46.75
2018-09-30T10:07:55.308Z,46.65
2018-09-30T10:10:23.369Z,46.15
2018-09-30T10:12:51.444Z,45.21
2018-09-30T10:15:19.690Z,46.05
2018-09-30T10:17:47.832Z,45.30
2018-09-30T10:20:15.913Z,45.80
2018-09-30T10:22:44.166Z,45.83
2018-09-30T10:25:12.254Z,45.03
2018-09-30T10:27:40.341Z,44.56
2018-09-30T10:30:08.438Z,45.10
2018-09-30T10:32:36.521Z,45.24
2018-09-30T10:35:04.633Z,45.15
2018-09-30T10:37:32.701Z,45.26
2018-09-30T10:40:00.856Z,44.42
2018-09-30T10:42:29.097Z,44.07
2018-09-30T10:44:57.225Z,43.36
2018-09-30T10:47:25.318Z,43.57
2018-09-30T10:49:53.528Z,43.69
2018-09-30T10:52:21.593Z,43.77
2018-09-30T10:54:49.691Z,43.43
2018-09-30T10:57:17.765Z,43.12
2018-09-30T10:59:45.861Z,43.40
2018-09-30T11:02:13.931Z,43.58
2018-09-30T11:04:42.025Z,43.48
2018-09-30T11:07:10.092Z,42.62
2018-09-30T11:09:38.198Z,42.82
2018-09-30T11:12:06.446Z,42.16
2018-09-30T11:14:34.529Z,42.54
2018-09-30T11:17:02.700Z,42.30
2018-09-30T11:19:30.781Z,42.41
2018-09-30T11:21:58.866Z,42.00
2018-09-30T11:24:27.018Z,42.10
2018-09-30T11:26:55.219Z,41.64
2018-09-30T11:29:23.318Z,41.28
2018-09-30T11:31:51.412Z,41.04
2018-09-30T11:34:19.456Z,41.27
2018-09-30T11:36:47.536Z,40.92
2018-09-30T11:39:15.609Z,40.69
2018-09-30T11:41:44.179Z,41.29
2018-09-30T11:44:13.001Z,41.75
2018-09-30T11:46:41.552Z,41.77
2018-09-30T11:49:10.125Z,41.18
2018-09-30T11:51:38.208Z,41.10
2018-09-30T11:54:06.276Z,41.20
2018-09-30T11:56:34.783Z,40.76
2018-09-30T11:59:02.853Z,40.83
2018-09-30T12:01:30.951Z,40.53
2018-09-30T12:03:59.272Z,40.37
2018-09-30T12:06:27.438Z,40.22
2018-09-30T12:08:55.513Z,40.47
2018-09-30T12:11:23.600Z,40.34
2018-09-30T12:13:51.674Z,40.56
2018-09-30T12:16:19.789Z,40.38
2018-09-30T12:18:47.980Z,40.32
2018-09-30T12:21:16.198Z,39.67
2018-09-30T12:23:45.256Z,39.48
2018-09-30T12:26:13.340Z,39.28
2018-09-30T12:28:41.532Z,39.22
2018-09-30T12:31:09.647Z,39.16
2018-09-30T12:33:37.726Z,39.23
2018-09-30T12:36:05.811Z,39.25
2018-09-30T12:38:33.986Z,39.36
2018-09-30T12:41:02.061Z,39.09
2018-09-30T12:43:30.149Z,38.98
2018-09-30T12:45:58.224Z,39.08
2018-09-30T12:48:26.311Z,38.99
2018-09-30T12:50:54.386Z,39.02
2018-09-30T12:53:22.474Z,38.81
2018-09-30T12:55:50.546Z,38.70
2018-09-30T12:58:18.652Z,37.93
2018-09-30T13:00:46.725Z,38.19
2018-09-30T13:03:14.809Z,38.15
2018-09-30T13:05:42.923Z,38.15
2018-09-30T13:08:11.065Z,38.19
2018-09-30T13:10:39.169Z,38.24
2018-09-30T13:13:07.257Z,38.16
2018-09-30T13:15:35.333Z,38.11
2018-09-30T13:18:03.456Z,37.97
2018-09-30T13:20:31.560Z,38.02
2018-09-30T13:22:59.657Z,38.19
2018-09-30T13:25:27.736Z,37.87
2018-09-30T13:27:55.828Z,37.79
2018-09-30T13:30:23.937Z,38.00
2018-09-30T13:32:52.253Z,37.99
2018-09-30T13:35:20.325Z,37.76
2018-09-30T13:37:48.398Z,37.52
2018-09-30T13:40:16.694Z,37.49
2018-09-30T13:42:44.570Z,37.66
2018-09-30T13:45:12.668Z,37.65
2018-09-30T13:47:40.734Z,37.42
2018-09-30T13:50:08.819Z,37.65
2018-09-30T13:52:36.892Z,37.69
2018-09-30T13:55:04.974Z,37.53
2018-09-30T13:57:33.049Z,37.37
2018-09-30T14:00:01.137Z,37.44
2018-09-30T14:02:29.223Z,37.60
2018-09-30T14:04:57.328Z,37.43
2018-09-30T14:07:25.401Z,37.26
2018-09-30T14:09:53.493Z,37.25
2018-09-30T14:12:21.571Z,37.19
2018-09-30T14:14:49.657Z,37.16
2018-09-30T14:17:17.815Z,37.00
2018-09-30T14:19:45.869Z,37.16
2018-09-30T14:22:13.938Z,37.01
2018-09-30T14:24:42.030Z,37.13
2018-09-30T14:27:10.237Z,37.10
2018-09-30T14:29:38.373Z,37.11
2018-09-30T14:32:06.490Z,37.27
2018-09-30T14:34:34.562Z,37.17
2018-09-30T14:37:02.646Z,37.13
2018-09-30T14:39:30.723Z,36.72
2018-09-30T14:41:58.840Z,37.21
2018-09-30T14:44:26.887Z,37.49
2018-09-30T14:46:54.974Z,37.40
2018-09-30T14:49:26.830Z,37.44
2018-09-30T14:51:54.874Z,37.25
2018-09-30T14:54:22.993Z,37.31
2018-09-30T14:56:51.213Z,37.73
2018-09-30T14:59:19.313Z,37.73
2018-09-30T15:01:47.405Z,37.90
2018-09-30T15:04:15.492Z,37.91
2018-09-30T15:06:43.588Z,37.96
2018-09-30T15:09:12.291Z,37.81
2018-09-30T15:11:40.685Z,37.91
2018-09-30T15:14:08.766Z,38.10
2018-09-30T15:16:36.880Z,38.30
2018-09-30T15:19:04.952Z,38.17
2018-09-30T15:21:33.284Z,38.20
2018-09-30T15:24:01.482Z,38.07
2018-09-30T15:26:29.663Z,38.23
2018-09-30T15:28:57.750Z,38.51
2018-09-30T15:31:25.857Z,38.41
2018-09-30T15:33:54.465Z,38.54
2018-09-30T15:36:22.537Z,38.49
2018-09-30T15:38:50.623Z,39.04
2018-09-30T15:41:18.698Z,39.27
2018-09-30T15:43:46.781Z,39.46
2018-09-30T15:46:14.862Z,40.28
2018-09-30T15:48:42.985Z,41.18
2018-09-30T15:51:11.021Z,41.75
2018-09-30T15:53:39.148Z,41.95
2018-09-30T15:56:07.405Z,41.71
2018-09-30T15:58:35.497Z,41.82
2018-09-30T16:01:03.575Z,41.84
2018-09-30T16:03:31.663Z,41.87
2018-09-30T16:05:59.769Z,41.72
2018-09-30T16:08:28.240Z,41.83
2018-09-30T16:10:56.599Z,42.30
2018-09-30T16:13:24.399Z,42.25
2018-09-30T16:15:52.471Z,42.01
2018-09-30T16:18:20.649Z,42.40
2018-09-30T16:20:51.861Z,42.86
2018-09-30T16:23:20.128Z,43.43
2018-09-30T16:25:48.213Z,43.84
2018-09-30T16:28:16.454Z,43.90
2018-09-30T16:30:44.979Z,44.26
2018-09-30T16:33:13.018Z,44.73
2018-09-30T16:35:41.384Z,45.18
2018-09-30T16:38:09.532Z,45.72
2018-09-30T16:40:37.643Z,46.28
2018-09-30T16:43:05.787Z,46.80
2018-09-30T16:45:33.870Z,47.16
2018-09-30T16:48:01.996Z,47.51
2018-09-30T16:50:30.119Z,47.84
2018-09-30T16:52:58.161Z,48.02
2018-09-30T16:55:26.243Z,48.02
2018-09-30T16:57:54.390Z,48.12
2018-09-30T17:00:22.473Z,48.77
2018-09-30T17:02:50.552Z,48.82
2018-09-30T17:05:18.641Z,49.17
2018-09-30T17:07:46.719Z,49.35
2018-09-30T17:10:14.856Z,49.40
2018-09-30T17:12:42.886Z,49.82
2018-09-30T17:15:10.965Z,50.44
2018-09-30T17:17:39.045Z,50.96
2018-09-30T17:20:07.166Z,51.45
2018-09-30T17:22:35.242Z,51.67
2018-09-30T17:25:06.527Z,51.88
2018-09-30T17:27:34.636Z,51.89
2018-09-30T17:30:02.716Z,51.89
2018-09-30T17:32:30.798Z,52.07
2018-09-30T17:34:58.875Z,52.44
2018-09-30T17:37:27.037Z,52.99
2018-09-30T17:39:55.365Z,53.35
2018-09-30T17:42:23.433Z,53.76
2018-09-30T17:44:51.529Z,53.92
2018-09-30T17:47:23.489Z,53.92
2018-09-30T17:49:51.585Z,53.99
2018-09-30T17:52:19.696Z,54.05
2018-09-30T17:54:47.856Z,54.25
2018-09-30T17:57:16.019Z,54.26
2018-09-30T17:59:44.099Z,54.18
2018-09-30T18:02:12.189Z,54.19
2018-09-30T18:04:40.368Z,54.35
2018-09-30T18:07:08.417Z,54.48
2018-09-30T18:09:36.574Z,54.56
2018-09-30T18:12:04.663Z,54.65
2018-09-30T18:14:33.749Z,54.71
2018-09-30T18:17:01.959Z,54.86
2018-09-30T18:19:29.993Z,55.02
2018-09-30T18:24:26.345Z,55.19
2018-09-30T18:26:54.435Z,55.23
2018-09-30T18:29:22.509Z,55.31
2018-09-30T18:31:50.676Z,55.35
2018-09-30T18:34:18.751Z,55.42
2018-09-30T18:36:46.834Z,55.48
2018-09-30T18:39:15.006Z,55.54
2018-09-30T18:41:43.217Z,55.61
2018-09-30T18:44:11.344Z,55.65
2018-09-30T18:46:39.384Z,55.71
2018-09-30T18:49:07.571Z,55.80
2018-09-30T18:51:35.687Z,55.87
2018-09-30T18:54:04.073Z,55.94
2018-09-30T18:56:32.392Z,56.04
2018-09-30T18:59:00.727Z,56.17
2018-09-30T19:01:29.060Z,56.30
2018-09-30T19:03:57.289Z,56.34
2018-09-30T19:06:25.631Z,56.41
2018-09-30T19:08:54.037Z,56.45
2018-09-30T19:11:22.119Z,56.53
2018-09-30T19:13:50.390Z,56.66
2018-09-30T19:16:18.637Z,56.71
2018-09-30T19:18:46.724Z,56.80
2018-09-30T19:21:14.817Z,56.92
2018-09-30T19:23:42.910Z,57.06
2018-09-30T19:26:11.022Z,57.10
2018-09-30T19:28:39.335Z,57.18
2018-09-30T19:31:07.609Z,57.28
2018-09-30T19:33:35.721Z,57.41
2018-09-30T19:36:04.222Z,57.39
2018-09-30T19:38:32.429Z,57.40
2018-09-30T19:41:00.585Z,57.44
2018-09-30T19:43:28.696Z,57.44
2018-09-30T19:45:56.878Z,57.44
2018-09-30T19:48:25.003Z,57.45
2018-09-30T19:50:53.075Z,57.49
2018-09-30T19:53:21.169Z,57.57
2018-09-30T19:55:49.345Z,57.80
2018-09-30T19:58:17.428Z,57.87
2018-09-30T20:00:45.512Z,57.92
2018-09-30T20:03:13.596Z,57.93
2018-09-30T20:05:41.913Z,58.01
2018-09-30T20:08:09.998Z,57.99
2018-09-30T20:10:38.145Z,57.85
2018-09-30T20:13:06.501Z,57.81
2018-09-30T20:15:34.587Z,57.70
2018-09-30T20:18:02.676Z,57.64
2018-09-30T20:20:30.778Z,57.71
2018-09-30T20:22:58.853Z,57.69
2018-09-30T20:25:26.946Z,57.74
2018-09-30T20:27:55.026Z,57.91
2018-09-30T20:30:23.118Z,57.96
2018-09-30T20:32:51.216Z,58.00
2018-09-30T20:35:19.303Z,57.98
2018-09-30T20:37:47.454Z,57.98
2018-09-30T20:40:15.539Z,57.96
2018-09-30T20:42:43.631Z,58.00
2018-09-30T20:45:11.706Z,58.03
2018-09-30T20:47:39.836Z,58.02
2018-09-30T20:50:07.991Z,58.08
2018-09-30T20:52:36.086Z,58.16
2018-09-30T20:55:04.193Z,58.13
2018-09-30T20:57:32.485Z,58.09
2018-09-30T21:00:00.590Z,58.00
2018-09-30T21:02:28.674Z,57.84
2018-09-30T21:04:56.983Z,57.73
2018-09-30T21:07:25.011Z,57.74
2018-09-30T21:09:53.571Z,57.56
2018-09-30T21:12:21.668Z,57.48
2018-09-30T21:14:49.742Z,57.39
2018-09-30T21:17:17.825Z,57.25
2018-09-30T21:19:46.035Z,57.18
2018-09-30T21:22:14.115Z,57.12
2018-09-30T21:24:42.186Z,57.08
2018-09-30T21:27:10.272Z,56.98
2018-09-30T21:29:38.342Z,56.96
2018-09-30T21:32:06.675Z,57.06
2018-09-30T21:34:34.739Z,56.98
2018-09-30T21:37:02.818Z,56.94
2018-09-30T21:39:30.901Z,56.93
2018-09-30T21:41:58.997Z,56.93
2018-09-30T21:44:27.081Z,56.97
2018-09-30T21:46:55.164Z,56.97
2018-09-30T21:49:23.248Z,56.85
2018-09-30T21:51:51.389Z,56.81
2018-09-30T21:54:19.473Z,56.80
2018-09-30T21:56:47.544Z,56.85
2018-09-30T21:59:15.622Z,56.78
2018-09-30T22:01:43.743Z,56.77
2018-09-30T22:04:11.858Z,56.79
2018-09-30T22:06:39.954Z,56.87
2018-09-30T22:09:08.055Z,56.88
2018-09-30T22:11:36.127Z,56.99
2018-09-30T22:14:04.227Z,56.97
2018-09-30T22:16:32.298Z,56.95
2018-09-30T22:19:04.393Z,56.91
2018-09-30T22:21:32.475Z,56.92
2018-09-30T22:24:00.549Z,56.98
2018-09-30T22:26:28.628Z,57.15
2018-09-30T22:28:56.699Z,57.39
2018-09-30T22:31:24.782Z,57.60
2018-09-30T22:33:52.858Z,57.82
2018-09-30T22:36:20.947Z,58.11
2018-09-30T22:38:49.143Z,58.35
2018-09-30T22:41:17.261Z,58.61
2018-09-30T22:43:45.307Z,58.93
2018-09-30T22:46:13.450Z,59.11
2018-09-30T22:48:41.524Z,59.30
2018-09-30T22:51:09.661Z,59.49
2018-09-30T22:53:37.791Z,59.67
2018-09-30T22:56:05.837Z,59.75
2018-09-30T22:58:33.907Z,59.89
2018-09-30T23:01:02.033Z,60.02
2018-09-30T23:03:30.104Z,60.15
2018-09-30T23:05:58.233Z,60.26
2018-09-30T23:08:26.268Z,60.36
2018-09-30T23:10:54.350Z,60.48
2018-09-30T23:13:22.424Z,60.59
2018-09-30T23:15:50.519Z,60.69
2018-09-30T23:18:18.617Z,60.78
2018-09-30T23:20:46.717Z,61.00
2018-09-30T23:23:14.802Z,61.09
2018-09-30T23:25:42.880Z,61.23
2018-09-30T23:28:10.960Z,61.38
2018-09-30T23:30:39.033Z,61.60
2018-09-30T23:33:07.174Z,61.58
2018-09-30T23:35:35.251Z,61.65
2018-09-30T23:38:03.343Z,61.69
2018-09-30T23:40:31.422Z,61.82
2018-09-30T23:42:59.530Z,61.88
2018-09-30T23:45:27.602Z,62.08
2018-09-30T23:47:55.690Z,62.18
2018-09-30T23:50:23.771Z,62.28
2018-09-30T23:52:51.853Z,62.27
2018-09-30T23:55:19.940Z,62.28
2018-09-30T23:57:48.178Z,62.34
